Azusa, California
Current Conditions -  °F | °C
As of 5:47 PM on Sunday 21 Dec 2014 (Local Time) from KPOC Reporting Station
Clear Clear  
Wind Chill: 57°   Ceiling: Unl
Heat Index: 57°   Visibility: 10mi
Dew Point: 50°   Wind: 0mph
Humidity: 77%   Direction: NA
Pressure: 30.08"   Gusts: NA
Location:  34.13°N, 117.9°W
Report Text: KPOC 220147Z 00000KT 10SM CLR 14/10 A3008
Loading
Personal Weather Stations






























Interactive Weather Map New forecast layout! Learn more

10-Day Weather Forecast

Advertisements
Track Severe Weather on mobile